Main page
METAR-TAF:

METAR-TAF

Airports :

Ghedi Air Base

Brescia Ghedi, Italy

latitude: 45-25N, longitude: 010-17E, elevation: 102 m

Current weather observation

The report was made 1 hour and 7 minutes ago, at 23:55 UTC
Wind 8 kt from the East/Northeast
Temperature 17°C
Humidity 63%
Pressure 1016 hPa
Visibility 10 km or more
Few clouds at a height of 8000 ft

METAR: LIPL 202355Z 07008KT 9999 FEW080 17/10 Q1016 RMK SCT VIS MIN 9999 WIND THR31 07010KT WIND THR13 06005KT BLU

Time: 03:02 (01:02 UTC)

Forecast

The report was made 2 hours and 2 minutes ago, at 23:00 UTC
Forecast valid from 21 at 00 UTC to 21 at 09 UTC
Wind 10 kt from the East/Northeast
Visibility 10 km or more
Scattered clouds at a height of 4000 ft

TAF: LIPL 202300Z 2100/2109 07010KT 9999 SCT040

Weather observations and forecasts of more than 4000 airports (METAR and TAF reports).

The available stations are represented by yellow and red dots on the map.

Hover mouse over dot to see the name of the station.

Then click to see weather observations and forecasts.

To change the map : click on the green buttons with a black cross to zoom in, on the green button with a dash to zoom out, or on the green arrows for adjacent maps.


METAR-TAF: